ZBTJ/TSN METAR and TAF weather

Enter ICAO airport designator
Station Type Date Time Source
ZBTJ METAR 2020/05/30 05:00 UTC NOAA

ZBTJ 300500Z 18006MPS CAVOK 31/09 Q1009 BECMG TL0630 12006MPS


Station Type Date Time Source
ZBTJ Decoded METAR 2020/05/30 05:00 UTC NOAA

Tianjin / Zhangguizhu, China (ZBTJ) 39-11N 117-21E
May 30, 2020 - 01:00 AM EDT / 2020.05.30 0500 UTC
Wind: from the S (180 degrees) at 13 MPH (12 KT):0
Visibility: greater than 7 mile(s):0
Temperature: 87 F (31 C)
Dew Point: 48 F (9 C)
Relative Humidity: 25%
Pressure (altimeter): 29.80 in. Hg (1009 hPa)
ob: ZBTJ 300500Z 18006MPS CAVOK 31/09 Q1009 BECMG TL0630 12006MPS
cycle: 5

Station Type Date Time Source
ZBTJ TAF 2020/05/30 06:03 UTC NOAA

TAF ZBTJ 300308Z 3006/3106 15006MPS 5000 HZ NSC TX31/3007Z TN18/3021Z
BECMG 3015/3016 21004MPS
TEMPO 3018/3024 -TSRA SCT030CB
BECMG 3101/3102 31007MPS

Example: see airport list